Time;durP1;ratioP1;P1;durP2;ratioP2;P2;SDS_P1;SDS_P2;PMS_P1;PMS_P2;Temp;Humidity;BMP_temperature;BMP_pressure;BME280_temperature;BME280_humidity;BME280_pressure;Samples;Min_cycle;Max_cycle;Signal;HPM_P1;HPM_P2
2023/11/22 00:00:20;;;;;;;3.13;2.83;;;10.50;96.20;;;;;;4986565;28;20524;-43
2023/11/22 00:02:49;;;;;;;3.10;2.20;;;10.60;96.20;;;;;;4984837;28;20497;-43
2023/11/22 00:05:17;;;;;;;4.53;2.37;;;10.60;96.20;;;;;;4984185;28;20432;-44
2023/11/22 00:07:45;;;;;;;3.47;2.80;;;10.50;96.10;;;;;;4982711;28;20839;-43
2023/11/22 00:10:13;;;;;;;3.10;2.80;;;10.60;96.20;;;;;;4976155;28;20529;-43
2023/11/22 00:12:43;;;;;;;3.00;2.50;;;10.50;96.20;;;;;;4979535;28;20468;-43
2023/11/22 00:15:11;;;;;;;2.97;2.57;;;10.60;96.20;;;;;;4987102;28;20522;-43
2023/11/22 00:17:39;;;;;;;3.03;2.67;;;10.60;96.20;;;;;;4979772;28;20470;-43
2023/11/22 00:20:09;;;;;;;4.30;3.50;;;10.50;96.10;;;;;;4986395;28;20442;-43
2023/11/22 00:22:37;;;;;;;3.77;2.23;;;10.50;96.10;;;;;;4988651;28;20466;-43
2023/11/22 00:25:06;;;;;;;3.00;2.67;;;10.50;96.10;;;;;;4985265;28;20456;-43
2023/11/22 00:27:34;;;;;;;4.00;3.30;;;10.50;96.20;;;;;;4985018;28;20480;-43
2023/11/22 00:30:04;;;;;;;3.20;2.70;;;10.50;96.20;;;;;;4966272;28;20430;-44
2023/11/22 00:32:32;;;;;;;2.93;2.63;;;10.50;96.10;;;;;;4963505;28;20533;-43
2023/11/22 00:35:01;;;;;;;3.33;2.50;;;10.50;96.10;;;;;;4986240;28;20478;-43
2023/11/22 00:37:29;;;;;;;3.53;2.70;;;10.50;96.10;;;;;;4974116;28;20468;-43
2023/11/22 00:39:59;;;;;;;4.17;3.33;;;10.50;96.10;;;;;;4964801;28;20455;-43
2023/11/22 00:42:27;;;;;;;3.83;3.00;;;10.50;96.10;;;;;;4966583;28;21049;-43
2023/11/22 00:44:55;;;;;;;3.70;3.30;;;10.50;96.00;;;;;;4978858;28;20435;-43
2023/11/22 00:47:25;;;;;;;4.13;2.57;;;10.50;95.90;;;;;;4987453;28;20496;-43
2023/11/22 00:49:53;;;;;;;3.50;2.43;;;10.50;96.00;;;;;;4988293;28;20461;-43
2023/11/22 00:52:21;;;;;;;3.80;2.73;;;10.50;96.10;;;;;;4985029;28;20968;-43
2023/11/22 00:54:49;;;;;;;2.70;2.10;;;10.50;96.10;;;;;;4967709;28;20493;-43
2023/11/22 00:57:17;;;;;;;3.80;2.67;;;10.50;96.10;;;;;;4970684;28;20471;-43
2023/11/22 00:59:46;;;;;;;3.10;2.33;;;10.50;96.10;;;;;;4982791;28;20447;-44
2023/11/22 01:02:14;;;;;;;2.83;2.60;;;10.50;96.10;;;;;;4981304;28;20497;-44
2023/11/22 01:04:43;;;;;;;3.17;2.80;;;10.50;96.10;;;;;;4982689;28;20445;-43
2023/11/22 01:07:11;;;;;;;2.93;2.63;;;10.50;96.10;;;;;;4988207;28;20471;-43
2023/11/22 01:09:39;;;;;;;2.50;2.30;;;10.50;96.10;;;;;;4984347;28;20446;-44
2023/11/22 01:12:09;;;;;;;2.80;2.40;;;10.50;96.10;;;;;;4970174;28;20848;-43
2023/11/22 01:14:37;;;;;;;2.60;2.33;;;10.50;96.10;;;;;;4975467;28;20484;-43
2023/11/22 01:17:05;;;;;;;2.97;2.23;;;10.50;96.10;;;;;;4968782;28;21062;-43
2023/11/22 01:19:33;;;;;;;3.00;2.63;;;10.50;96.10;;;;;;4987229;28;20780;-43
2023/11/22 01:22:04;;;;;;;3.07;2.43;;;10.50;96.10;;;;;;4988258;28;20835;-43
2023/11/22 01:24:33;;;;;;;3.43;2.60;;;10.50;96.10;;;;;;4964502;28;20430;-44
2023/11/22 01:27:01;;;;;;;3.03;2.83;;;10.50;96.10;;;;;;4986318;28;20837;-44
2023/11/22 01:29:30;;;;;;;2.57;2.17;;;10.50;96.10;;;;;;4979332;28;21005;-43
2023/11/22 01:31:58;;;;;;;4.40;2.50;;;10.50;96.10;;;;;;4969298;28;20462;-43
2023/11/22 01:34:27;;;;;;;3.40;2.83;;;10.50;96.10;;;;;;4985292;28;20469;-44
2023/11/22 01:36:55;;;;;;;2.90;2.33;;;10.50;96.10;;;;;;4986625;28;20465;-44
2023/11/22 01:39:26;;;;;;;3.50;2.70;;;10.50;96.10;;;;;;4990280;28;20446;-43
2023/11/22 01:41:54;;;;;;;2.70;2.20;;;10.50;96.00;;;;;;4970491;28;20539;-43
2023/11/22 01:44:23;;;;;;;2.83;2.53;;;10.50;96.10;;;;;;4973447;28;20442;-43
2023/11/22 01:46:51;;;;;;;4.67;3.10;;;10.50;96.10;;;;;;4991094;28;20474;-43
2023/11/22 01:49:20;;;;;;;5.17;4.00;;;10.50;96.10;;;;;;4980118;28;20455;-43
2023/11/22 01:51:48;;;;;;;3.37;3.07;;;10.50;96.00;;;;;;4967239;28;20520;-43
2023/11/22 01:54:19;;;;;;;4.17;3.33;;;10.40;96.00;;;;;;4989332;28;20481;-43
2023/11/22 01:56:50;;;;;;;3.70;2.73;;;10.40;95.90;;;;;;4975795;28;20466;-43
2023/11/22 01:59:19;;;;;;;3.37;2.47;;;10.40;96.00;;;;;;4982707;28;20936;-44
2023/11/22 02:01:50;;;;;;;7.17;2.83;;;10.40;96.00;;;;;;4971023;28;20602;-45
2023/11/22 02:04:19;;;;;;;3.63;3.20;;;10.40;95.90;;;;;;4967987;28;20786;-43
2023/11/22 02:06:48;;;;;;;3.07;2.77;;;10.40;96.00;;;;;;4974068;28;20463;-43
2023/11/22 02:09:17;;;;;;;3.13;2.70;;;10.40;95.90;;;;;;4981876;28;20450;-43
2023/11/22 02:11:47;;;;;;;3.27;2.40;;;10.40;96.00;;;;;;4984699;28;20462;-43
2023/11/22 02:14:17;;;;;;;3.87;3.10;;;10.40;95.90;;;;;;4972076;28;20488;-43
2023/11/22 02:16:46;;;;;;;3.80;2.63;;;10.40;96.00;;;;;;4984729;28;21076;-43
2023/11/22 02:19:16;;;;;;;3.30;2.80;;;10.40;96.00;;;;;;4985224;28;20455;-43
2023/11/22 02:21:45;;;;;;;3.20;2.63;;;10.40;96.00;;;;;;4967623;28;20465;-43
2023/11/22 02:24:15;;;;;;;2.53;2.30;;;10.40;96.00;;;;;;4970113;28;20436;-43
2023/11/22 02:26:45;;;;;;;3.30;2.90;;;10.40;96.00;;;;;;4980730;28;20470;-43
2023/11/22 02:29:14;;;;;;;3.40;2.77;;;10.40;96.00;;;;;;4967659;28;20434;-43
2023/11/22 02:31:44;;;;;;;3.73;3.33;;;10.40;95.90;;;;;;4987442;28;20491;-43
2023/11/22 02:34:12;;;;;;;3.20;2.90;;;10.40;95.90;;;;;;4982327;28;20450;-43
2023/11/22 02:36:43;;;;;;;4.23;3.00;;;10.40;95.80;;;;;;4990276;28;20514;-43
2023/11/22 02:39:30;;;;;;;4.00;3.37;;;10.40;95.90;;;;;;4989391;28;20600;-43
2023/11/22 02:41:58;;;;;;;6.57;4.67;;;10.40;95.80;;;;;;4973551;28;20469;-43
2023/11/22 02:44:26;;;;;;;5.67;4.90;;;10.40;95.60;;;;;;4984171;28;21073;-43
2023/11/22 02:46:54;;;;;;;8.10;5.10;;;10.40;95.50;;;;;;4988194;28;20557;-42
2023/11/22 02:49:23;;;;;;;4.00;3.13;;;10.40;95.50;;;;;;4965638;28;20492;-43
2023/11/22 02:51:51;;;;;;;3.63;3.33;;;10.30;95.50;;;;;;4974447;28;20466;-43
2023/11/22 02:54:20;;;;;;;4.20;3.10;;;10.30;95.60;;;;;;4959579;28;20469;-43
2023/11/22 02:56:49;;;;;;;3.30;3.00;;;10.30;95.60;;;;;;4980605;28;20467;-44
2023/11/22 02:59:19;;;;;;;4.77;4.00;;;10.40;95.70;;;;;;4980298;28;20436;-43
2023/11/22 03:01:47;;;;;;;4.90;3.57;;;10.30;95.60;;;;;;4963168;28;20493;-44
2023/11/22 03:04:15;;;;;;;6.17;4.43;;;10.40;95.70;;;;;;4981336;28;20428;-44
2023/11/22 03:06:43;;;;;;;4.30;3.60;;;10.30;95.50;;;;;;4978687;28;20478;-43
2023/11/22 03:09:13;;;;;;;4.27;2.80;;;10.30;95.60;;;;;;4959605;28;20516;-43
2023/11/22 03:11:41;;;;;;;3.73;3.17;;;10.30;95.70;;;;;;4976773;28;20550;-44
2023/11/22 03:14:11;;;;;;;4.07;3.10;;;10.30;95.60;;;;;;4987745;28;20979;-43
2023/11/22 03:16:40;;;;;;;3.70;3.00;;;10.30;95.60;;;;;;4980037;28;20532;-43
2023/11/22 03:19:08;;;;;;;4.30;3.70;;;10.30;95.80;;;;;;4969120;28;20474;-43
2023/11/22 03:21:36;;;;;;;4.87;3.37;;;10.30;95.70;;;;;;4984838;28;20557;-43
2023/11/22 03:24:04;;;;;;;3.33;2.90;;;10.30;95.70;;;;;;4964427;28;20488;-43
2023/11/22 03:26:32;;;;;;;4.23;3.53;;;10.30;95.70;;;;;;4979019;28;20459;-43
2023/11/22 03:29:01;;;;;;;2.90;2.60;;;10.30;95.70;;;;;;4965871;28;20438;-43
2023/11/22 03:31:31;;;;;;;3.80;3.50;;;10.30;95.70;;;;;;4971117;28;20819;-43
2023/11/22 03:33:59;;;;;;;3.73;2.80;;;10.30;95.70;;;;;;4989549;28;20439;-43
2023/11/22 03:36:27;;;;;;;3.97;3.53;;;10.30;95.70;;;;;;4960532;28;20497;-43
2023/11/22 03:38:55;;;;;;;3.23;2.87;;;10.30;95.70;;;;;;4979902;28;20450;-43
2023/11/22 03:41:23;;;;;;;3.83;3.30;;;10.30;95.60;;;;;;4969828;28;20461;-43
2023/11/22 03:43:51;;;;;;;4.67;4.10;;;10.30;95.40;;;;;;4985433;28;20454;-43
2023/11/22 03:46:20;;;;;;;3.40;3.10;;;10.30;95.60;;;;;;4975233;28;20777;-43
2023/11/22 03:48:49;;;;;;;4.07;3.67;;;10.30;95.70;;;;;;4965701;28;20947;-44
2023/11/22 03:51:17;;;;;;;4.00;3.17;;;10.30;95.60;;;;;;4984913;28;20500;-43
2023/11/22 03:53:45;;;;;;;5.73;4.03;;;10.30;95.50;;;;;;4962424;28;21017;-44
2023/11/22 03:56:13;;;;;;;4.57;3.80;;;10.30;95.40;;;;;;4979366;28;20491;-43
2023/11/22 03:58:42;;;;;;;4.77;4.00;;;10.30;95.50;;;;;;4989531;28;20430;-43
2023/11/22 04:01:10;;;;;;;4.40;3.73;;;10.30;95.40;;;;;;4980253;28;20958;-43
2023/11/22 04:03:38;;;;;;;5.93;4.57;;;10.30;95.50;;;;;;4966886;28;20877;-43
2023/11/22 04:06:08;;;;;;;6.07;4.30;;;10.20;95.10;;;;;;4980902;28;20872;-44
2023/11/22 04:08:37;;;;;;;5.87;5.20;;;10.20;95.10;;;;;;4981254;28;20959;-42
2023/11/22 04:11:05;;;;;;;4.03;3.13;;;10.20;94.90;;;;;;4980407;28;20456;-43
2023/11/22 04:13:33;;;;;;;5.77;4.10;;;10.20;95.30;;;;;;4989573;28;20452;-44
2023/11/22 04:16:02;;;;;;;5.87;3.80;;;10.20;95.20;;;;;;4985616;28;20477;-44
2023/11/22 04:18:30;;;;;;;5.60;4.13;;;10.20;95.10;;;;;;4981512;28;20486;-43
2023/11/22 04:21:01;;;;;;;4.97;4.20;;;10.20;95.20;;;;;;4998469;28;20541;-43
2023/11/22 04:23:31;;;;;;;5.73;4.40;;;10.20;95.00;;;;;;4996125;28;20497;-43
2023/11/22 04:25:59;;;;;;;3.90;3.50;;;10.20;95.10;;;;;;4995735;28;20935;-44
2023/11/22 04:28:29;;;;;;;5.30;4.00;;;10.20;95.20;;;;;;4985722;28;20500;-43
2023/11/22 04:30:58;;;;;;;5.23;4.50;;;10.20;95.40;;;;;;4981233;28;20479;-43
2023/11/22 04:33:27;;;;;;;4.97;4.47;;;10.20;95.30;;;;;;4987942;28;20702;-44
2023/11/22 04:35:56;;;;;;;5.67;4.60;;;10.20;95.30;;;;;;4982886;28;20866;-43
2023/11/22 04:38:25;;;;;;;4.50;3.70;;;10.20;95.20;;;;;;4996655;28;21072;-43
2023/11/22 04:40:54;;;;;;;5.80;4.53;;;10.20;95.20;;;;;;4988789;28;20530;-43
2023/11/22 04:43:23;;;;;;;8.17;5.47;;;10.20;95.20;;;;;;4991376;28;20460;-43
2023/11/22 04:45:51;;;;;;;4.43;4.03;;;10.20;94.90;;;;;;4993901;28;20434;-43
2023/11/22 04:48:19;;;;;;;4.00;3.00;;;10.20;95.10;;;;;;4987807;28;20565;-43
2023/11/22 04:50:47;;;;;;;3.30;3.00;;;10.20;95.30;;;;;;4988139;28;20483;-42
2023/11/22 04:53:16;;;;;;;3.53;2.97;;;10.20;95.40;;;;;;4988561;28;21014;-43
2023/11/22 04:55:44;;;;;;;4.40;3.27;;;10.20;95.40;;;;;;4988564;28;20470;-44
2023/11/22 04:58:16;;;;;;;6.43;3.50;;;10.20;95.40;;;;;;4995295;28;20461;-43
2023/11/22 05:00:45;;;;;;;4.27;3.87;;;10.20;95.40;;;;;;4983904;28;20445;-43
2023/11/22 05:03:13;;;;;;;2.97;2.63;;;10.20;95.40;;;;;;4983700;28;21248;-44
2023/11/22 05:05:41;;;;;;;6.37;4.47;;;10.20;95.30;;;;;;4991265;28;20454;-43
2023/11/22 05:08:10;;;;;;;4.97;4.20;;;10.20;95.10;;;;;;4993024;28;20460;-43
2023/11/22 05:10:44;;;;;;;4.70;3.77;;;10.20;95.10;;;;;;4986174;28;20561;-43
2023/11/22 05:13:12;;;;;;;4.00;3.33;;;10.20;95.20;;;;;;4979868;28;20480;-43
2023/11/22 05:15:41;;;;;;;5.93;5.17;;;10.20;95.20;;;;;;4990405;28;20514;-43
2023/11/22 05:18:09;;;;;;;5.07;3.97;;;10.20;95.20;;;;;;4995075;28;20457;-44
2023/11/22 05:20:37;;;;;;;3.20;2.53;;;10.20;95.30;;;;;;4985044;28;20442;-43
2023/11/22 05:23:05;;;;;;;4.17;3.57;;;10.20;95.40;;;;;;5000378;28;20534;-43
2023/11/22 05:25:33;;;;;;;7.70;4.10;;;10.20;95.30;;;;;;4989459;28;20977;-43
2023/11/22 05:28:02;;;;;;;3.87;3.17;;;10.20;95.10;;;;;;4991428;28;20556;-43
2023/11/22 05:30:31;;;;;;;4.87;2.90;;;10.20;95.10;;;;;;4989646;28;20446;-43
2023/11/22 05:33:00;;;;;;;3.13;2.83;;;10.20;95.30;;;;;;4977174;28;20478;-43
2023/11/22 05:35:29;;;;;;;2.90;2.60;;;10.20;95.40;;;;;;4984962;28;20452;-43
2023/11/22 05:37:57;;;;;;;4.00;3.60;;;10.20;95.40;;;;;;4989073;28;20570;-44
2023/11/22 05:40:26;;;;;;;4.50;3.20;;;10.20;95.40;;;;;;4984635;28;21010;-43
2023/11/22 05:42:54;;;;;;;3.17;2.43;;;10.20;95.40;;;;;;4993240;28;20510;-43
2023/11/22 05:45:23;;;;;;;3.70;2.67;;;10.20;95.40;;;;;;4987215;28;20432;-43
2023/11/22 05:47:51;;;;;;;3.63;2.87;;;10.20;95.40;;;;;;4981640;28;20536;-43
2023/11/22 05:50:21;;;;;;;3.13;2.60;;;10.20;95.30;;;;;;4992126;28;20458;-43
2023/11/22 05:52:49;;;;;;;4.00;3.37;;;10.20;95.40;;;;;;4992633;28;20475;-43
2023/11/22 05:55:18;;;;;;;2.90;2.50;;;10.20;95.40;;;;;;4993109;28;20876;-44
2023/11/22 05:57:46;;;;;;;4.50;3.53;;;10.20;95.40;;;;;;4986815;28;20848;-44
2023/11/22 06:00:15;;;;;;;4.87;2.70;;;10.20;95.40;;;;;;4987603;28;20433;-43
2023/11/22 06:02:43;;;;;;;2.93;2.50;;;10.20;95.40;;;;;;4981956;28;20474;-43
2023/11/22 06:05:14;;;;;;;3.40;3.10;;;10.10;95.30;;;;;;4985845;28;20536;-44
2023/11/22 06:07:44;;;;;;;3.80;2.90;;;10.20;95.40;;;;;;4984634;28;21142;-43
2023/11/22 06:10:14;;;;;;;3.90;3.03;;;10.10;95.30;;;;;;4978738;28;20442;-43
2023/11/22 06:12:43;;;;;;;3.73;3.33;;;10.10;95.30;;;;;;4986202;28;20527;-44
2023/11/22 06:15:12;;;;;;;4.57;2.90;;;10.10;95.40;;;;;;4993048;28;20429;-43
2023/11/22 06:17:40;;;;;;;3.57;3.17;;;10.10;95.30;;;;;;4988746;28;20480;-44
2023/11/22 06:20:15;;;;;;;3.80;2.90;;;10.20;95.40;;;;;;4996363;28;20437;-46
2023/11/22 06:22:45;;;;;;;3.30;3.00;;;10.10;95.30;;;;;;4987067;28;20477;-45
2023/11/22 06:25:13;;;;;;;3.03;2.67;;;10.10;95.30;;;;;;4989832;28;20461;-43
2023/11/22 06:27:49;;;;;;;3.90;3.30;;;10.20;95.30;;;;;;4987539;28;20477;-42
2023/11/22 06:30:17;;;;;;;3.77;3.10;;;10.10;95.30;;;;;;4986259;28;20865;-43
2023/11/22 06:32:45;;;;;;;3.77;3.30;;;10.10;95.30;;;;;;4982292;28;20462;-43
2023/11/22 06:35:14;;;;;;;3.57;2.90;;;10.10;95.30;;;;;;4987582;28;20524;-43
2023/11/22 06:37:47;;;;;;;4.10;3.10;;;10.10;95.30;;;;;;4987164;28;20488;-43
2023/11/22 06:40:16;;;;;;;3.70;3.00;;;10.10;95.30;;;;;;4984190;28;20479;-43
2023/11/22 06:42:45;;;;;;;4.57;2.80;;;10.10;95.30;;;;;;4993202;28;20465;-43
2023/11/22 06:45:13;;;;;;;3.70;2.83;;;10.10;95.20;;;;;;4993449;28;20430;-43
2023/11/22 06:47:42;;;;;;;4.27;2.97;;;10.10;95.20;;;;;;4986560;28;20465;-43
2023/11/22 06:50:10;;;;;;;3.00;2.67;;;10.10;95.30;;;;;;4984571;28;20456;-44
2023/11/22 06:52:39;;;;;;;4.17;3.07;;;10.10;95.30;;;;;;4981532;28;20469;-43
2023/11/22 06:55:10;;;;;;;3.97;3.03;;;10.10;95.30;;;;;;4980302;28;20848;-43
2023/11/22 06:57:39;;;;;;;3.20;2.70;;;10.00;95.00;;;;;;4983731;28;20479;-43
2023/11/22 07:00:09;;;;;;;4.00;3.30;;;10.00;95.20;;;;;;4992393;28;20437;-44
2023/11/22 07:02:38;;;;;;;4.03;3.30;;;10.10;95.20;;;;;;4986498;28;21022;-43
2023/11/22 07:05:08;;;;;;;3.30;3.00;;;10.00;95.20;;;;;;4980419;28;20865;-44
2023/11/22 07:07:37;;;;;;;4.60;4.10;;;10.00;95.20;;;;;;4979860;28;20436;-43
2023/11/22 07:10:11;;;;;;;6.60;4.37;;;10.00;95.10;;;;;;4984898;28;20201;-43
2023/11/22 07:12:39;;;;;;;4.27;3.77;;;10.10;95.20;;;;;;4970459;28;20471;-43
2023/11/22 07:15:09;;;;;;;5.90;4.00;;;10.00;95.00;;;;;;4967791;28;20844;-43
2023/11/22 07:17:38;;;;;;;5.70;3.87;;;10.00;95.00;;;;;;4960054;28;20483;-43
2023/11/22 07:20:09;;;;;;;5.23;3.70;;;10.00;95.00;;;;;;4965101;28;20437;-44
2023/11/22 07:22:37;;;;;;;4.70;4.20;;;10.00;95.00;;;;;;4969691;28;20478;-43
2023/11/22 07:25:07;;;;;;;4.00;3.60;;;10.00;95.10;;;;;;4957116;28;20948;-43
2023/11/22 07:27:36;;;;;;;4.97;3.77;;;10.00;95.10;;;;;;4968772;28;20459;-43
2023/11/22 07:30:07;;;;;;;5.47;4.10;;;10.00;95.00;;;;;;4977117;28;20766;-43
2023/11/22 07:32:37;;;;;;;5.07;3.57;;;10.00;95.10;;;;;;4977903;28;20471;-43
2023/11/22 07:35:08;;;;;;;4.17;3.70;;;10.00;95.10;;;;;;4983485;28;20466;-43
2023/11/22 07:37:39;;;;;;;4.10;3.70;;;10.00;95.10;;;;;;4984290;28;20486;-43
2023/11/22 07:40:09;;;;;;;5.07;3.97;;;10.00;95.10;;;;;;4986823;28;20445;-43
2023/11/22 07:42:38;;;;;;;6.20;4.23;;;10.00;95.10;;;;;;4982440;28;20476;-43
2023/11/22 07:45:11;;;;;;;5.70;3.90;;;10.00;95.10;;;;;;4989291;28;20441;-43
2023/11/22 07:47:41;;;;;;;4.70;3.63;;;10.00;95.10;;;;;;4983118;28;20466;-43
2023/11/22 07:50:31;;;;;;;4.40;3.80;;;10.00;95.10;;;;;;5017060;23;20464;31
2023/11/22 07:52:59;;;;;;;4.27;3.53;;;10.00;95.10;;;;;;4944178;28;20838;-45
2023/11/22 07:55:27;;;;;;;4.43;3.53;;;10.00;95.00;;;;;;4952670;28;20474;-46
2023/11/22 07:57:57;;;;;;;4.63;3.87;;;10.00;95.00;;;;;;4954308;28;20479;-46
2023/11/22 08:00:25;;;;;;;4.33;3.53;;;10.00;95.10;;;;;;4954124;28;20846;-44
2023/11/22 08:02:57;;;;;;;4.37;3.90;;;10.00;95.00;;;;;;4950958;28;20557;-44
2023/11/22 08:05:25;;;;;;;5.00;3.30;;;10.00;95.00;;;;;;4954094;28;20432;-46
2023/11/22 08:07:53;;;;;;;4.47;3.60;;;10.00;95.10;;;;;;4953620;28;20463;-47
2023/11/22 08:10:22;;;;;;;4.10;3.70;;;10.00;95.00;;;;;;4949994;28;20471;-46
2023/11/22 08:12:50;;;;;;;4.10;3.70;;;9.90;95.40;;;;;;4951051;28;20948;-44
2023/11/22 08:15:21;;;;;;;4.70;3.57;;;9.90;95.40;;;;;;4953646;28;20927;-44
2023/11/22 08:17:49;;;;;;;5.50;4.97;;;9.90;95.40;;;;;;4951264;28;20526;-45
2023/11/22 08:20:17;;;;;;;3.87;3.47;;;9.90;95.30;;;;;;4950844;28;20670;-47
2023/11/22 08:22:50;;;;;;;5.30;3.57;;;9.90;95.40;;;;;;4952644;28;20478;-44
2023/11/22 08:25:19;;;;;;;4.47;4.07;;;10.00;95.00;;;;;;4947341;28;21032;-47
2023/11/22 08:27:47;;;;;;;5.10;3.60;;;9.90;95.40;;;;;;4946799;28;20720;-45
2023/11/22 08:30:15;;;;;;;5.30;3.60;;;9.90;95.40;;;;;;4952108;28;20501;-45
2023/11/22 08:32:51;;;;;;;4.03;3.40;;;10.00;95.00;;;;;;4944582;28;20956;-46
2023/11/22 08:35:19;;;;;;;4.53;3.13;;;10.00;95.00;;;;;;4945460;28;20940;-46
2023/11/22 08:37:50;;;;;;;4.50;3.60;;;10.00;95.10;;;;;;4947304;28;20473;-45
2023/11/22 08:40:20;;;;;;;4.10;3.47;;;9.90;95.40;;;;;;4949628;28;20448;-47
2023/11/22 08:42:51;;;;;;;3.83;3.43;;;9.90;95.40;;;;;;4949366;28;20838;-46
2023/11/22 08:45:19;;;;;;;4.23;3.70;;;10.00;95.00;;;;;;4953997;28;20465;-46
2023/11/22 08:47:49;;;;;;;3.80;2.83;;;9.90;95.40;;;;;;4953438;28;20533;-46
2023/11/22 08:50:20;;;;;;;3.50;2.90;;;9.90;95.40;;;;;;4945917;28;20451;-45
2023/11/22 08:52:52;;;;;;;4.10;3.43;;;10.00;95.00;;;;;;4946358;28;20523;-45
2023/11/22 08:55:21;;;;;;;4.30;3.37;;;10.00;95.00;;;;;;4944362;28;20884;-46
2023/11/22 08:57:50;;;;;;;3.57;2.60;;;10.00;95.00;;;;;;4947416;28;20500;-45
2023/11/22 09:00:22;;;;;;;4.23;3.13;;;10.00;95.00;;;;;;4950685;28;20513;-45
2023/11/22 09:02:51;;;;;;;4.10;3.37;;;10.00;95.00;;;;;;4949730;28;20505;-45
2023/11/22 09:05:20;;;;;;;3.70;3.20;;;10.00;95.00;;;;;;4950712;28;20834;-46
2023/11/22 09:07:49;;;;;;;4.03;3.53;;;10.00;95.00;;;;;;4944090;28;20784;-46
2023/11/22 09:10:18;;;;;;;4.23;3.33;;;10.00;95.00;;;;;;4946998;28;20828;-47
2023/11/22 09:12:47;;;;;;;4.60;3.93;;;10.00;94.90;;;;;;4948098;28;20515;-45
2023/11/22 09:15:15;;;;;;;3.40;2.97;;;10.00;94.90;;;;;;4950532;28;20451;-45
2023/11/22 09:17:46;;;;;;;3.80;3.20;;;10.00;94.90;;;;;;4947512;28;20576;-47
2023/11/22 09:20:19;;;;;;;9.60;7.83;;;10.00;94.90;;;;;;4941761;28;20476;-45
2023/11/22 09:22:49;;;;;;;13.00;9.97;;;10.00;94.00;;;;;;4952006;28;20470;-44
2023/11/22 09:25:19;;;;;;;11.20;9.23;;;9.90;93.60;;;;;;4950445;28;20452;-46
2023/11/22 09:27:49;;;;;;;8.00;6.43;;;9.90;93.40;;;;;;4945532;28;20464;-44
2023/11/22 09:30:32;;;;;;;8.77;7.33;;;9.90;94.00;;;;;;4947463;28;20448;-45
2023/11/22 09:33:00;;;;;;;10.73;6.53;;;9.90;94.10;;;;;;4949850;28;20567;-43
2023/11/22 09:35:32;;;;;;;10.47;6.77;;;9.90;94.20;;;;;;4952988;28;20463;-48
2023/11/22 09:38:00;;;;;;;8.40;7.53;;;9.90;94.30;;;;;;4952664;28;20465;-48
2023/11/22 09:40:31;;;;;;;8.33;6.93;;;9.90;94.30;;;;;;4950722;28;20483;-44
2023/11/22 09:43:01;;;;;;;8.93;6.00;;;9.90;94.40;;;;;;4952854;28;20896;-44
2023/11/22 09:45:31;;;;;;;7.13;6.33;;;9.90;94.40;;;;;;4948574;28;20435;-45
2023/11/22 09:48:00;;;;;;;7.63;6.10;;;10.00;94.10;;;;;;4944789;28;20480;-44
2023/11/22 09:50:40;;;;;;;6.83;5.40;;;10.00;94.00;;;;;;4950731;28;20813;-46
2023/11/22 09:53:14;;;;;;;11.17;6.97;;;9.90;94.40;;;;;;4950689;28;20821;-45
2023/11/22 09:55:44;;;;;;;6.90;5.50;;;9.90;94.40;;;;;;4941737;28;20464;-45
2023/11/22 09:58:13;;;;;;;6.70;5.53;;;9.90;94.40;;;;;;4951171;28;20463;-49
2023/11/22 10:00:42;;;;;;;7.00;6.00;;;10.00;94.10;;;;;;4950982;28;20435;-45
2023/11/22 10:03:12;;;;;;;8.20;5.80;;;9.90;94.50;;;;;;4952267;28;20455;-48
2023/11/22 10:05:44;;;;;;;7.47;5.63;;;9.90;94.50;;;;;;4948899;28;20950;-47
2023/11/22 10:08:12;;;;;;;5.90;4.87;;;9.90;94.60;;;;;;4947697;28;20522;-44
2023/11/22 10:10:44;;;;;;;7.03;5.23;;;9.90;94.60;;;;;;4942879;28;20823;-45
2023/11/22 10:13:14;;;;;;;6.70;5.50;;;10.00;94.20;;;;;;4951265;28;20499;-46
2023/11/22 10:15:42;;;;;;;6.20;4.90;;;9.90;94.60;;;;;;4949049;28;20798;-46
2023/11/22 10:18:11;;;;;;;6.53;5.17;;;9.90;94.60;;;;;;4947013;28;20472;-46
2023/11/22 10:20:40;;;;;;;6.80;5.30;;;9.90;94.60;;;;;;4946339;28;20486;-45
2023/11/22 10:23:14;;;;;;;7.30;5.23;;;9.90;94.60;;;;;;4946988;28;20551;-45
2023/11/22 10:25:47;;;;;;;6.63;5.93;;;9.90;94.60;;;;;;4944224;28;20961;-45
2023/11/22 10:28:16;;;;;;;6.57;5.93;;;9.90;94.70;;;;;;4950117;28;20463;-43
2023/11/22 10:30:44;;;;;;;5.23;4.73;;;9.90;94.70;;;;;;4949499;28;20507;-45
2023/11/22 10:33:14;;;;;;;6.63;5.60;;;9.90;94.70;;;;;;4950402;28;20542;-47
2023/11/22 10:35:44;;;;;;;6.43;5.07;;;9.90;94.70;;;;;;4947914;28;20452;-45
2023/11/22 10:38:16;;;;;;;6.53;5.10;;;9.90;94.60;;;;;;4943469;28;20478;-47
2023/11/22 10:40:45;;;;;;;7.53;6.23;;;9.90;94.70;;;;;;4950023;28;20523;-45
2023/11/22 10:43:13;;;;;;;7.07;5.77;;;9.90;94.60;;;;;;4947917;28;20490;-49
2023/11/22 10:45:45;;;;;;;5.70;5.00;;;9.90;94.60;;;;;;4948233;28;20432;-45
2023/11/22 10:48:16;;;;;;;5.73;4.97;;;9.90;94.70;;;;;;4945748;28;20483;-46
2023/11/22 10:50:45;;;;;;;6.77;5.37;;;9.90;94.70;;;;;;4941599;28;20448;-46
2023/11/22 10:53:16;;;;;;;5.57;4.97;;;9.90;94.70;;;;;;4942703;28;20518;-45
2023/11/22 10:55:48;;;;;;;8.83;5.37;;;9.90;94.60;;;;;;4944340;28;20448;-47
2023/11/22 10:58:20;;;;;;;6.47;4.93;;;9.90;94.70;;;;;;4943243;28;20616;-44
2023/11/22 11:00:50;;;;;;;5.00;4.50;;;9.80;94.70;;;;;;4949488;28;20554;-45
2023/11/22 11:03:20;;;;;;;5.60;5.10;;;9.90;94.80;;;;;;4946489;28;20495;-46
2023/11/22 11:05:53;;;;;;;5.40;4.70;;;9.80;94.70;;;;;;4949038;28;20471;-47
2023/11/22 11:08:27;;;;;;;4.97;4.37;;;9.90;94.70;;;;;;4950586;28;20530;-44
2023/11/22 11:10:58;;;;;;;4.60;4.10;;;9.80;94.70;;;;;;4948678;28;20483;-44
2023/11/22 11:13:28;;;;;;;6.50;5.13;;;9.80;94.70;;;;;;4948849;28;20463;-46
2023/11/22 11:15:56;;;;;;;5.90;4.50;;;9.80;94.70;;;;;;4945115;28;20447;-44
2023/11/22 11:18:27;;;;;;;5.13;4.63;;;9.80;94.70;;;;;;4945762;28;20518;-45
2023/11/22 11:20:59;;;;;;;5.80;5.20;;;9.90;94.80;;;;;;4946179;28;20993;-47
2023/11/22 11:23:31;;;;;;;11.77;9.07;;;9.90;94.80;;;;;;4959684;28;20905;-45
2023/11/22 11:26:16;;;;;;;9.97;7.73;;;9.80;93.20;;;;;;4946614;28;20467;-46
2023/11/22 11:28:48;;;;;;;8.60;7.17;;;9.80;93.70;;;;;;4943623;28;20980;-44
2023/11/22 11:31:17;;;;;;;9.67;6.00;;;9.70;94.10;;;;;;4947114;28;20527;-44
2023/11/22 11:33:56;;;;;;;8.07;6.37;;;9.80;94.30;;;;;;4946874;28;20456;-48
2023/11/22 11:36:25;;;;;;;9.07;7.07;;;9.80;94.30;;;;;;4950588;28;20436;-45
2023/11/22 11:38:55;;;;;;;7.03;5.50;;;9.80;94.30;;;;;;4947178;28;20432;-46
2023/11/22 11:41:30;;;;;;;8.93;6.50;;;9.80;94.50;;;;;;4948253;28;20538;-43
2023/11/22 11:43:58;;;;;;;9.47;7.03;;;9.80;94.40;;;;;;4946679;28;20484;-47
2023/11/22 11:46:27;;;;;;;7.60;6.90;;;9.80;94.50;;;;;;4945686;28;20431;-47
2023/11/22 11:48:56;;;;;;;7.10;5.50;;;9.80;94.50;;;;;;4945741;28;20475;-45
2023/11/22 11:51:26;;;;;;;6.97;5.60;;;9.80;94.40;;;;;;4948223;28;20933;-45
2023/11/22 11:53:56;;;;;;;6.37;5.40;;;9.80;94.50;;;;;;4949440;29;20435;-44
2023/11/22 11:56:29;;;;;;;6.70;5.60;;;9.80;94.60;;;;;;4946638;28;20455;-44
2023/11/22 11:58:59;;;;;;;6.83;5.33;;;9.80;94.60;;;;;;4949854;29;20424;-46
2023/11/22 12:01:30;;;;;;;7.03;5.97;;;9.80;94.60;;;;;;4948657;28;20550;-46
2023/11/22 12:03:58;;;;;;;7.00;5.17;;;9.80;94.60;;;;;;4951330;29;20516;-45
2023/11/22 12:06:27;;;;;;;9.23;7.03;;;9.80;94.60;;;;;;4945570;28;20454;-45
2023/11/22 12:08:55;;;;;;;8.30;5.97;;;9.80;94.60;;;;;;4951526;29;20495;-44
2023/11/22 12:11:23;;;;;;;6.57;5.77;;;9.80;94.60;;;;;;4947737;28;20990;-46
2023/11/22 12:13:53;;;;;;;6.80;5.60;;;9.80;94.60;;;;;;4951238;29;20428;-44
2023/11/22 12:16:21;;;;;;;6.83;5.80;;;9.80;94.60;;;;;;4946888;28;20455;-43
2023/11/22 12:18:51;;;;;;;7.97;5.80;;;9.80;94.30;;;;;;4949663;29;20431;-43
2023/11/22 12:21:20;;;;;;;7.53;5.80;;;9.80;94.40;;;;;;4949053;28;20877;-43
2023/11/22 12:23:49;;;;;;;8.43;6.20;;;9.80;94.40;;;;;;4932541;29;20453;-44
2023/11/22 12:26:20;;;;;;;7.20;5.53;;;9.90;94.50;;;;;;4948443;28;20829;-43
2023/11/22 12:28:53;;;;;;;8.07;6.00;;;9.90;94.40;;;;;;4950256;29;20435;-45
2023/11/22 12:31:35;;;;;;;9.10;5.93;;;9.90;94.50;;;;;;4949248;28;20897;-44
2023/11/22 12:34:06;;;;;;;7.57;6.57;;;9.90;94.40;;;;;;4950196;28;20467;-44
2023/11/22 12:36:36;;;;;;;6.87;5.07;;;9.90;94.50;;;;;;4950962;28;20523;-44
2023/11/22 12:39:11;;;;;;;7.72;6.10;;;9.90;94.50;;;;;;4953276;29;20936;-44
2023/11/22 12:41:45;;;;;;;8.20;5.73;;;10.00;93.50;;;;;;4950316;28;20224;-44
2023/11/22 12:44:24;;;;;;;6.37;5.73;;;10.00;93.70;;;;;;4950764;29;20435;-43
2023/11/22 12:46:56;;;;;;;8.23;6.20;;;10.00;93.80;;;;;;4952958;28;20478;-45
2023/11/22 12:49:26;;;;;;;6.23;5.20;;;10.00;93.90;;;;;;4950698;29;20839;-45
2023/11/22 12:51:56;;;;;;;8.23;5.57;;;10.10;93.70;;;;;;4948890;28;20813;-44
2023/11/22 12:54:24;;;;;;;6.20;4.60;;;10.10;93.70;;;;;;4951705;29;20448;-45
2023/11/22 12:56:57;;;;;;;6.60;5.57;;;10.00;93.70;;;;;;4948490;28;20463;-45
2023/11/22 12:59:30;;;;;;;5.37;4.53;;;10.00;93.70;;;;;;4933064;29;20956;-43
2023/11/22 13:02:00;;;;;;;5.57;4.97;;;10.10;93.80;;;;;;4952160;28;20467;-49